6  °C
Temperature
5  °C
  Dewpoint
   Humidity
Temp | Dewpoint | Humidity
14  km/h
Wind Speed
9  mph
Wind Speed
8  kts
Wind Speed
180°
Due South

Wind Speed
Clear
Conditions
Pressure 1002.92 (hPa) - 29.62 (in)
Visibility 6.2 (mi) - 10.0 (km)

Current Conditions
EHRD
Location 6km (3.2mi)
Metar :EHRD 111625Z AUTO 18008KT 9999 NSC 06/05 Q1003 NOSIG
Wed 11th December 18:25 pm

Airport
  Metar Aviation API Data Provided by https://www.checkwx.com/ CSS/SVG/PHP scripts by weather34.com © 2015-2019